Time;durP1;ratioP1;P1;durP2;ratioP2;P2;SDS_P1;SDS_P2;PMS_P1;PMS_P2;Temp;Humidity;BMP_temperature;BMP_pressure;BME280_temperature;BME280_humidity;BME280_pressure;Samples;Min_cycle;Max_cycle;Signal;HPM_P1;HPM_P2
2022/01/08 00:00:31;;;;;;;11.00;2.55;;;27.10;62.90;;;;;;4965758;28;20030;-77
2022/01/08 00:02:58;;;;;;;10.18;2.85;;;27.10;63.00;;;;;;4972030;28;20023;-77
2022/01/08 00:05:24;;;;;;;7.80;2.05;;;27.10;63.00;;;;;;4964333;28;20025;-77
2022/01/08 00:07:51;;;;;;;6.78;2.40;;;27.00;63.00;;;;;;4968930;28;20018;-76
2022/01/08 00:10:18;;;;;;;5.00;1.20;;;27.00;63.10;;;;;;4963939;28;20105;-76
2022/01/08 00:12:44;;;;;;;3.30;1.80;;;27.00;63.20;;;;;;4970905;28;20039;-77
2022/01/08 00:15:11;;;;;;;5.68;1.92;;;27.00;63.20;;;;;;4971369;28;20023;-75
2022/01/08 00:17:37;;;;;;;6.15;2.13;;;27.00;63.20;;;;;;4971061;28;20161;-75
2022/01/08 00:20:05;;;;;;;7.28;3.17;;;26.90;63.20;;;;;;4970364;28;20478;-75
2022/01/08 00:22:32;;;;;;;9.20;2.50;;;27.00;63.30;;;;;;4966572;28;20059;-77
2022/01/08 00:24:58;;;;;;;15.43;2.65;;;26.90;63.30;;;;;;4970809;28;20027;-75
2022/01/08 00:27:25;;;;;;;6.53;2.13;;;26.90;63.30;;;;;;4964355;28;20201;-75
2022/01/08 00:29:52;;;;;;;3.67;1.90;;;26.90;63.40;;;;;;4972355;28;20035;-76
2022/01/08 00:32:19;;;;;;;7.20;2.22;;;26.90;63.40;;;;;;4965316;28;20468;-76
2022/01/08 00:34:45;;;;;;;4.45;1.90;;;26.90;63.50;;;;;;4970416;28;20023;-76
2022/01/08 00:37:12;;;;;;;4.75;2.08;;;26.90;63.60;;;;;;4964137;28;20394;-79
2022/01/08 00:39:39;;;;;;;8.15;2.42;;;26.80;63.60;;;;;;4971310;28;20449;-76
2022/01/08 00:42:06;;;;;;;7.68;2.92;;;26.80;63.60;;;;;;4974686;28;20023;-75
2022/01/08 00:44:33;;;;;;;8.82;2.88;;;26.80;63.60;;;;;;4971160;28;20034;-75
2022/01/08 00:46:59;;;;;;;4.82;2.10;;;26.80;63.70;;;;;;4964772;28;20118;-77
2022/01/08 00:49:26;;;;;;;8.63;1.80;;;26.80;64.20;;;;;;4973513;28;20022;-76
2022/01/08 00:51:52;;;;;;;7.38;2.33;;;26.80;63.80;;;;;;4974765;28;20035;-77
2022/01/08 00:54:19;;;;;;;6.07;2.00;;;26.80;63.90;;;;;;4974328;28;20025;-77
2022/01/08 00:56:45;;;;;;;7.80;3.00;;;26.70;63.80;;;;;;4953373;28;20042;-76
2022/01/08 00:59:11;;;;;;;8.15;2.20;;;26.70;64.60;;;;;;4955621;28;20019;-75
2022/01/08 01:01:38;;;;;;;5.68;2.30;;;26.70;64.00;;;;;;4972450;28;20390;-76
2022/01/08 01:04:04;;;;;;;12.00;3.75;;;26.70;64.00;;;;;;4971607;28;20562;-76
2022/01/08 01:06:31;;;;;;;15.90;3.35;;;26.70;64.00;;;;;;4972507;28;20031;-75
2022/01/08 01:08:57;;;;;;;21.50;3.95;;;26.70;64.10;;;;;;4971232;28;20022;-77
2022/01/08 01:11:24;;;;;;;13.95;2.97;;;26.70;64.30;;;;;;4970167;28;20034;-78
2022/01/08 01:13:50;;;;;;;15.43;3.17;;;26.70;64.30;;;;;;4972554;28;20019;-76
2022/01/08 01:16:18;;;;;;;6.50;2.63;;;26.60;64.30;;;;;;4974198;28;20497;-76
2022/01/08 01:18:45;;;;;;;9.38;2.78;;;26.60;64.40;;;;;;4966885;28;20023;-74
2022/01/08 01:21:11;;;;;;;11.27;2.25;;;26.60;64.40;;;;;;4971266;28;20023;-75
2022/01/08 01:23:42;;;;;;;5.38;2.28;;;26.60;64.40;;;;;;4967594;28;20126;-76
2022/01/08 01:26:14;;;;;;;5.85;2.72;;;26.60;64.40;;;;;;4970351;28;20437;-76
2022/01/08 01:28:59;;;;;;;8.55;2.72;;;26.60;64.40;;;;;;4969632;28;20019;-75
2022/01/08 01:42:26;;;;;;;4.50;2.13;;;26.50;64.60;;;;;;4974574;28;19913;-78
2022/01/08 01:47:37;;;;;;;8.77;2.13;;;26.50;64.70;;;;;;4969777;28;20093;-76
2022/01/08 01:50:07;;;;;;;9.73;2.47;;;26.50;64.70;;;;;;4969912;28;20561;-76
2022/01/08 01:52:33;;;;;;;9.63;2.17;;;26.50;64.70;;;;;;4971569;28;20482;-76
2022/01/08 01:55:00;;;;;;;11.95;2.15;;;26.40;64.70;;;;;;4975655;28;20026;-76
2022/01/08 01:57:27;;;;;;;14.90;2.63;;;26.40;64.70;;;;;;4965181;28;20038;-77
2022/01/08 01:59:54;;;;;;;13.75;2.78;;;26.40;64.80;;;;;;4966891;28;20035;-75
2022/01/08 02:02:21;;;;;;;11.38;2.15;;;26.40;65.00;;;;;;4953559;28;20019;-76
2022/01/08 02:04:48;;;;;;;14.80;4.22;;;26.40;65.00;;;;;;4967451;28;20023;-75
2022/01/08 02:07:14;;;;;;;17.13;2.65;;;26.40;64.90;;;;;;4969306;28;20074;-76
2022/01/08 02:09:41;;;;;;;35.53;5.80;;;26.40;65.10;;;;;;4972129;28;20019;-75
2022/01/08 02:12:12;;;;;;;18.80;3.72;;;26.40;65.30;;;;;;4970311;28;20162;-75
2022/01/08 02:14:39;;;;;;;13.55;3.47;;;26.40;65.20;;;;;;4972771;28;20026;-77
2022/01/08 02:17:07;;;;;;;11.48;2.78;;;26.40;65.10;;;;;;4969148;28;20023;-78
2022/01/08 02:19:34;;;;;;;11.55;3.03;;;26.30;65.00;;;;;;4969060;28;20030;-78
2022/01/08 02:22:03;;;;;;;8.10;1.90;;;26.30;64.90;;;;;;4954575;28;20054;-78
2022/01/08 02:24:30;;;;;;;8.88;2.92;;;26.40;65.00;;;;;;4974553;28;20023;-78
2022/01/08 02:26:57;;;;;;;6.65;1.92;;;26.30;64.90;;;;;;4970943;28;20376;-77
2022/01/08 02:29:25;;;;;;;4.38;2.47;;;26.30;65.00;;;;;;4972215;28;20077;-76
2022/01/08 02:31:56;;;;;;;3.72;1.65;;;26.30;65.00;;;;;;4967627;28;20050;-78
2022/01/08 02:34:25;;;;;;;8.60;2.65;;;26.30;65.00;;;;;;4954918;28;20050;-76
2022/01/08 02:36:51;;;;;;;15.27;3.08;;;26.30;65.00;;;;;;4970538;28;20102;-78
2022/01/08 02:39:18;;;;;;;16.05;3.53;;;26.20;65.00;;;;;;4967811;28;20034;-77
2022/01/08 02:41:45;;;;;;;5.57;2.42;;;26.30;65.10;;;;;;4967760;28;20378;-76
2022/01/08 02:44:12;;;;;;;8.73;1.75;;;26.20;65.20;;;;;;4970740;28;20105;-76
2022/01/08 02:46:40;;;;;;;6.53;2.92;;;26.20;65.10;;;;;;4965967;28;20045;-75
2022/01/08 02:49:07;;;;;;;8.55;2.75;;;26.20;65.20;;;;;;4972003;28;20105;-77
2022/01/08 02:51:35;;;;;;;4.55;2.60;;;26.20;65.30;;;;;;4971892;28;20030;-76
2022/01/08 02:54:06;;;;;;;9.05;2.40;;;26.20;65.30;;;;;;4970966;28;20022;-78
2022/01/08 02:56:36;;;;;;;11.57;1.88;;;26.20;65.40;;;;;;4964374;28;20028;-75
2022/01/08 02:59:03;;;;;;;8.27;2.95;;;26.10;65.50;;;;;;4969526;28;20170;-75
2022/01/08 03:01:30;;;;;;;5.63;2.10;;;26.10;65.60;;;;;;4968030;28;20113;-75
2022/01/08 03:03:57;;;;;;;11.35;2.80;;;26.10;65.60;;;;;;4976124;28;20018;-74
2022/01/08 03:06:24;;;;;;;11.88;2.38;;;26.10;65.60;;;;;;4968697;28;20020;-78
2022/01/08 03:08:50;;;;;;;14.18;2.88;;;26.10;65.50;;;;;;4965627;28;20023;-75
2022/01/08 03:11:17;;;;;;;10.95;2.38;;;26.10;65.50;;;;;;4952580;28;20050;-75
2022/01/08 03:13:44;;;;;;;32.50;5.72;;;26.10;65.40;;;;;;4966202;28;20030;-77
2022/01/08 03:16:10;;;;;;;59.90;12.57;;;26.10;65.50;;;;;;4971568;28;20031;-78
2022/01/08 03:18:37;;;;;;;59.35;13.65;;;26.00;65.60;;;;;;4974643;28;20033;-77
2022/01/08 03:21:19;;;;;;;31.45;6.50;;;26.00;65.70;;;;;;4966020;28;20038;-77
2022/01/08 03:24:00;;;;;;;46.97;8.57;;;26.00;65.70;;;;;;4969611;28;20185;-76
2022/01/08 03:26:28;;;;;;;72.15;12.15;;;26.00;65.70;;;;;;4970939;28;20019;-75
2022/01/08 03:28:56;;;;;;;60.25;7.03;;;26.00;65.70;;;;;;4968811;28;20027;-77
2022/01/08 03:31:25;;;;;;;30.30;6.40;;;26.00;65.80;;;;;;4969293;28;20030;-75
2022/01/08 03:33:52;;;;;;;24.48;5.55;;;26.00;65.80;;;;;;4972821;28;20021;-79
2022/01/08 03:36:23;;;;;;;15.65;2.65;;;26.00;65.70;;;;;;4964791;28;20018;-76
2022/01/08 03:38:51;;;;;;;14.43;3.72;;;26.00;65.70;;;;;;4968053;28;20505;-75
2022/01/08 03:41:18;;;;;;;25.83;5.72;;;25.90;65.80;;;;;;4968042;28;20014;-76
2022/01/08 03:43:45;;;;;;;44.28;13.15;;;25.80;66.30;;;;;;4973789;28;20022;-76
2022/01/08 03:46:11;;;;;;;22.98;9.32;;;25.80;66.70;;;;;;4966251;28;20034;-75
2022/01/08 03:51:04;;;;;;;12.02;4.32;;;25.70;66.70;;;;;;4969870;28;20038;-77
2022/01/08 03:53:31;;;;;;;22.27;3.78;;;25.80;66.60;;;;;;4969528;28;20577;-74
2022/01/08 03:55:57;;;;;;;18.30;4.85;;;25.80;66.50;;;;;;4966916;28;20101;-78
2022/01/08 03:58:25;;;;;;;14.70;3.05;;;25.80;66.40;;;;;;4968352;28;20073;-80
2022/01/08 04:00:52;;;;;;;33.47;5.68;;;25.80;66.30;;;;;;4966002;28;20019;-75
2022/01/08 04:03:18;;;;;;;38.88;5.82;;;25.80;66.40;;;;;;4967744;28;20234;-76
2022/01/08 04:05:50;;;;;;;44.13;7.65;;;25.80;66.70;;;;;;4953435;28;20027;-78
2022/01/08 04:08:20;;;;;;;28.50;4.50;;;25.80;66.70;;;;;;4966460;28;20840;-77
2022/01/08 04:10:46;;;;;;;24.50;4.40;;;25.80;66.60;;;;;;4949947;28;20038;-78
2022/01/08 04:13:17;;;;;;;17.17;2.97;;;25.80;66.50;;;;;;4952231;28;20029;-78
2022/01/08 04:15:46;;;;;;;13.55;3.65;;;25.80;66.30;;;;;;4967826;28;20023;-78
2022/01/08 04:18:13;;;;;;;15.88;3.92;;;25.80;66.30;;;;;;4969301;28;20014;-78
2022/01/08 04:21:12;;;;;;;47.75;8.93;;;25.80;66.20;;;;;;4967436;28;20355;-78
2022/01/08 04:23:37;;;;;;;25.85;7.57;;;25.70;66.50;;;;;;4968582;28;20053;-77
2022/01/08 04:26:04;;;;;;;35.08;9.27;;;25.70;67.00;;;;;;4965293;28;20078;-78
2022/01/08 04:28:38;;;;;;;20.77;5.65;;;25.70;67.10;;;;;;4968238;28;20097;-76
2022/01/08 04:31:05;;;;;;;28.98;6.43;;;25.70;66.90;;;;;;4952405;28;20039;-75
2022/01/08 04:33:36;;;;;;;41.53;6.43;;;25.70;66.80;;;;;;4969064;28;20025;-76
2022/01/08 04:36:02;;;;;;;58.67;9.27;;;25.80;66.80;;;;;;4952552;28;20552;-75
2022/01/08 04:38:29;;;;;;;45.15;6.70;;;25.80;66.90;;;;;;4966519;28;20023;-75
2022/01/08 04:40:55;;;;;;;73.55;9.73;;;25.80;67.20;;;;;;4966525;28;20043;-77
2022/01/08 04:43:23;;;;;;;40.72;5.13;;;25.80;67.60;;;;;;4970115;28;20029;-76
2022/01/08 04:45:51;;;;;;;50.17;9.02;;;25.80;68.00;;;;;;4951002;28;20430;-76
2022/01/08 04:48:18;;;;;;;50.47;5.97;;;25.80;68.00;;;;;;4968333;28;20019;-76
2022/01/08 04:50:45;;;;;;;51.03;7.47;;;25.80;67.90;;;;;;4967393;28;20114;-77
2022/01/08 04:53:11;;;;;;;35.20;5.10;;;25.90;67.90;;;;;;4969654;28;20062;-74
2022/01/08 04:55:38;;;;;;;16.77;3.72;;;25.80;67.80;;;;;;4964101;28;20350;-74
2022/01/08 04:58:06;;;;;;;23.23;4.03;;;25.80;67.70;;;;;;4964381;28;20019;-75
2022/01/08 05:00:33;;;;;;;17.60;4.32;;;25.90;67.70;;;;;;4946953;28;20027;-76
2022/01/08 05:03:00;;;;;;;14.23;4.07;;;25.80;67.50;;;;;;4970101;28;20461;-75
2022/01/08 05:05:27;;;;;;;10.90;3.03;;;25.80;67.50;;;;;;4967673;28;20410;-76
2022/01/08 05:07:54;;;;;;;6.97;2.90;;;25.80;67.40;;;;;;4968961;28;20030;-78
2022/01/08 05:10:20;;;;;;;7.03;2.95;;;25.90;67.40;;;;;;4971245;28;20027;-76
2022/01/08 05:12:47;;;;;;;7.97;2.35;;;25.90;67.30;;;;;;4969548;28;20011;-74
2022/01/08 05:15:16;;;;;;;11.40;3.90;;;25.90;67.40;;;;;;4961625;28;20027;-79
2022/01/08 05:17:46;;;;;;;12.40;4.32;;;25.90;67.40;;;;;;4951481;28;20078;-74
2022/01/08 05:20:14;;;;;;;13.43;3.88;;;25.90;67.50;;;;;;4969863;28;20487;-77
2022/01/08 05:25:19;;;;;;;8.05;3.42;;;25.90;67.60;;;;;;4968102;28;20399;-78
2022/01/08 05:27:46;;;;;;;8.27;2.45;;;25.90;67.60;;;;;;4968542;28;20055;-78
2022/01/08 05:30:16;;;;;;;9.73;2.75;;;25.90;67.50;;;;;;4969630;28;20045;-78
2022/01/08 05:32:43;;;;;;;12.45;2.85;;;26.00;67.60;;;;;;4952217;28;20113;-78
2022/01/08 05:35:10;;;;;;;6.88;2.65;;;26.00;67.50;;;;;;4968924;28;20494;-77
2022/01/08 05:37:36;;;;;;;9.25;2.60;;;26.00;67.40;;;;;;4972605;28;20475;-76
2022/01/08 05:40:03;;;;;;;10.10;3.25;;;26.00;67.30;;;;;;4966153;28;20031;-78
2022/01/08 05:42:34;;;;;;;8.32;2.47;;;26.00;67.10;;;;;;4963852;28;20039;-76
2022/01/08 05:45:01;;;;;;;12.48;3.15;;;26.00;67.00;;;;;;4953714;28;20462;-77
2022/01/08 05:47:35;;;;;;;8.00;2.55;;;26.10;66.90;;;;;;4962281;28;20054;-79
2022/01/08 05:50:03;;;;;;;29.38;3.92;;;26.10;66.80;;;;;;4963329;28;20122;-79
2022/01/08 05:52:30;;;;;;;35.15;5.80;;;26.10;66.70;;;;;;4961868;28;20034;-79
2022/01/08 05:54:57;;;;;;;31.10;6.70;;;26.20;66.70;;;;;;4966464;28;20418;-77
2022/01/08 05:57:23;;;;;;;33.60;4.97;;;26.20;66.70;;;;;;4961119;28;20031;-77
2022/01/08 05:59:50;;;;;;;29.48;5.00;;;26.20;66.50;;;;;;4960509;28;20022;-78
2022/01/08 06:02:17;;;;;;;54.25;6.80;;;26.30;66.50;;;;;;4961591;28;20067;-79
2022/01/08 06:04:43;;;;;;;56.78;8.98;;;26.30;66.50;;;;;;4969057;28;20092;-79
2022/01/08 06:07:10;;;;;;;43.53;7.32;;;26.30;66.60;;;;;;4972256;28;20030;-77
2022/01/08 06:09:36;;;;;;;51.35;6.53;;;26.40;66.60;;;;;;4953608;28;20197;-77
2022/01/08 06:12:03;;;;;;;27.48;7.45;;;26.40;66.40;;;;;;4970338;28;20465;-78
2022/01/08 06:14:29;;;;;;;44.88;6.55;;;26.40;66.40;;;;;;4970255;28;20034;-75
2022/01/08 06:16:56;;;;;;;64.82;9.02;;;26.50;66.30;;;;;;4965617;28;20426;-77
2022/01/08 06:19:22;;;;;;;43.92;7.05;;;26.50;66.30;;;;;;4973407;28;20592;-78
2022/01/08 06:21:49;;;;;;;46.97;8.52;;;26.50;66.30;;;;;;4965341;28;20540;-78
2022/01/08 06:24:15;;;;;;;48.17;6.97;;;26.60;66.20;;;;;;4972044;28;20026;-77
2022/01/08 06:26:42;;;;;;;46.67;6.43;;;26.60;66.10;;;;;;4971417;28;20031;-79
2022/01/08 06:29:08;;;;;;;56.15;10.07;;;26.60;66.00;;;;;;4973177;28;20050;-79
2022/01/08 06:31:35;;;;;;;53.53;7.30;;;26.60;65.90;;;;;;4967498;28;20050;-78
2022/01/08 06:34:03;;;;;;;36.17;8.50;;;26.60;65.70;;;;;;4972385;28;20026;-79
2022/01/08 06:36:30;;;;;;;38.88;6.75;;;26.70;65.70;;;;;;4973571;28;20019;-78
2022/01/08 06:38:56;;;;;;;24.35;4.78;;;26.70;65.70;;;;;;4971476;28;20019;-77
2022/01/08 06:41:23;;;;;;;27.10;5.72;;;26.80;65.70;;;;;;4970831;28;20038;-79
2022/01/08 06:43:49;;;;;;;30.80;4.82;;;26.80;65.50;;;;;;4964824;28;20414;-78
2022/01/08 06:46:16;;;;;;;29.08;6.35;;;26.90;65.50;;;;;;4973343;28;20109;-76
2022/01/08 06:48:42;;;;;;;53.45;8.63;;;26.90;65.30;;;;;;4960784;28;20070;-77
2022/01/08 06:51:09;;;;;;;39.53;7.43;;;26.90;65.70;;;;;;4951597;28;20035;-78
2022/01/08 06:53:44;;;;;;;40.90;6.07;;;26.90;65.50;;;;;;4963787;28;20479;-78
2022/01/08 06:56:10;;;;;;;34.63;6.45;;;27.00;65.40;;;;;;4962149;28;20030;-76
2022/01/08 06:58:41;;;;;;;20.98;4.15;;;27.00;65.20;;;;;;4963419;28;20087;-76
2022/01/08 07:01:08;;;;;;;16.27;3.58;;;27.10;65.00;;;;;;4954122;28;20027;-79
2022/01/08 07:03:35;;;;;;;9.32;3.78;;;27.10;64.80;;;;;;4964355;28;20057;-79
2022/01/08 07:06:02;;;;;;;12.85;4.55;;;27.10;64.50;;;;;;4972105;28;20576;-79
2022/01/08 07:08:28;;;;;;;9.93;3.30;;;27.20;64.30;;;;;;4962936;28;20115;-79
2022/01/08 07:10:55;;;;;;;5.68;3.03;;;27.20;64.00;;;;;;4964144;28;20490;-80
2022/01/08 07:13:21;;;;;;;5.25;2.15;;;27.30;63.80;;;;;;4966377;28;20410;-79
2022/01/08 07:15:48;;;;;;;7.97;2.45;;;27.40;63.60;;;;;;4969450;28;20026;-77
2022/01/08 07:18:14;;;;;;;9.57;2.67;;;27.40;63.40;;;;;;4971608;28;20026;-77
2022/01/08 07:20:41;;;;;;;8.45;3.15;;;27.50;63.30;;;;;;4968396;28;20067;-79
2022/01/08 07:23:07;;;;;;;8.07;5.55;;;27.50;63.00;;;;;;4951604;28;20054;-79
2022/01/08 07:25:34;;;;;;;13.27;8.77;;;27.50;62.90;;;;;;4967049;28;20023;-80
2022/01/08 07:28:00;;;;;;;39.35;11.27;;;27.60;62.50;;;;;;4965361;28;20552;-79
2022/01/08 07:30:27;;;;;;;20.92;9.27;;;27.70;62.40;;;;;;4968590;28;20041;-79
2022/01/08 07:32:53;;;;;;;20.77;8.68;;;27.80;62.30;;;;;;4972762;28;20105;-79
2022/01/08 07:35:22;;;;;;;18.35;8.55;;;27.80;62.10;;;;;;4950011;28;20019;-80
2022/01/08 07:37:51;;;;;;;24.20;8.27;;;27.90;62.20;;;;;;4970877;28;20443;-79
2022/01/08 07:40:18;;;;;;;16.20;5.88;;;28.00;62.30;;;;;;4965034;28;20117;-80
2022/01/08 07:42:45;;;;;;;7.82;2.85;;;28.00;62.10;;;;;;4971935;28;20057;-78
2022/01/08 07:45:12;;;;;;;14.88;3.22;;;28.10;61.80;;;;;;4967343;28;20054;-79
2022/01/08 07:47:38;;;;;;;6.22;2.45;;;28.20;61.60;;;;;;4968243;28;20495;-80
2022/01/08 07:50:06;;;;;;;4.63;2.08;;;28.20;61.40;;;;;;4969527;28;20035;-80
2022/01/08 07:52:33;;;;;;;19.95;4.53;;;28.30;61.50;;;;;;4968537;28;20034;-79
2022/01/08 07:55:00;;;;;;;21.05;3.42;;;28.40;61.60;;;;;;4968670;28;20034;-78
2022/01/08 07:57:26;;;;;;;18.90;5.93;;;28.40;61.40;;;;;;4947875;28;20027;-80
2022/01/08 07:59:53;;;;;;;18.13;3.30;;;28.50;61.00;;;;;;4966015;28;20094;-80
2022/01/08 08:02:20;;;;;;;40.47;4.90;;;28.60;60.80;;;;;;4964585;28;20127;-79
2022/01/08 08:04:46;;;;;;;15.38;3.67;;;28.70;61.10;;;;;;4969680;28;20034;-80
2022/01/08 08:07:13;;;;;;;12.52;3.15;;;28.70;60.00;;;;;;4971511;28;20019;-81
2022/01/08 08:09:39;;;;;;;17.25;3.00;;;28.80;59.80;;;;;;4970088;28;20019;-79
2022/01/08 08:12:06;;;;;;;9.88;2.42;;;28.80;59.50;;;;;;4966085;28;20469;-81
2022/01/08 08:14:33;;;;;;;13.35;2.65;;;28.90;59.00;;;;;;4969233;28;20031;-80
2022/01/08 08:16:59;;;;;;;7.60;2.00;;;29.00;58.80;;;;;;4970364;28;20030;-80
2022/01/08 08:19:26;;;;;;;6.78;2.50;;;29.00;58.60;;;;;;4970120;28;20116;-80
2022/01/08 08:21:52;;;;;;;5.47;1.88;;;29.10;58.10;;;;;;4967791;28;20086;-80
2022/01/08 08:24:20;;;;;;;5.03;2.03;;;29.20;58.00;;;;;;4970634;28;20031;-80
2022/01/08 08:26:47;;;;;;;6.43;2.40;;;29.20;57.60;;;;;;4965318;28;20143;-80
2022/01/08 08:29:14;;;;;;;4.15;2.10;;;29.30;57.30;;;;;;4966942;28;20046;-80
2022/01/08 08:31:40;;;;;;;11.82;2.60;;;29.40;57.30;;;;;;4948423;28;20046;-79
2022/01/08 08:34:07;;;;;;;11.57;2.58;;;29.40;57.00;;;;;;4971823;28;20154;-79
2022/01/08 08:36:33;;;;;;;2.67;1.67;;;29.50;56.80;;;;;;4968117;28;20466;-79
2022/01/08 08:38:59;;;;;;;6.68;2.42;;;29.60;56.50;;;;;;4953460;28;20512;-79
2022/01/08 08:41:26;;;;;;;4.20;1.83;;;29.70;56.50;;;;;;4966331;28;20027;-77
2022/01/08 08:43:52;;;;;;;6.90;2.33;;;29.70;56.30;;;;;;4969487;28;20034;-78
2022/01/08 08:46:19;;;;;;;4.70;2.55;;;29.80;56.10;;;;;;4971552;28;20030;-77
2022/01/08 08:48:45;;;;;;;6.60;2.80;;;29.90;55.70;;;;;;4969960;28;20035;-77
2022/01/08 08:51:12;;;;;;;4.10;1.60;;;30.00;55.50;;;;;;4953365;28;20113;-79
2022/01/08 08:53:38;;;;;;;6.40;1.90;;;30.10;55.50;;;;;;4964709;28;20125;-79
2022/01/08 08:56:05;;;;;;;37.38;5.65;;;30.10;55.40;;;;;;4966306;28;20045;-80
2022/01/08 08:58:32;;;;;;;10.00;2.65;;;30.20;55.20;;;;;;4967376;28;20498;-80
2022/01/08 09:00:58;;;;;;;9.85;1.98;;;30.30;55.30;;;;;;4972181;28;20022;-80
2022/01/08 09:03:42;;;;;;;9.80;3.10;;;30.30;55.00;;;;;;4970167;28;20482;-77
2022/01/08 09:06:08;;;;;;;16.40;4.03;;;30.40;54.70;;;;;;4970484;28;20025;-80
2022/01/08 09:08:35;;;;;;;25.45;5.80;;;30.50;55.10;;;;;;4974340;28;20482;-78
2022/01/08 09:11:01;;;;;;;18.02;3.53;;;30.50;53.90;;;;;;4973780;28;20393;-80
2022/01/08 09:13:28;;;;;;;25.42;4.22;;;30.50;53.60;;;;;;4974682;28;20011;-80
2022/01/08 09:15:55;;;;;;;15.88;4.03;;;30.40;53.40;;;;;;4968435;28;20027;-80
2022/01/08 09:18:21;;;;;;;14.45;3.47;;;30.30;53.10;;;;;;4974262;28;20022;-80
2022/01/08 09:20:49;;;;;;;11.35;2.63;;;30.20;53.10;;;;;;4974736;28;20018;-79
2022/01/08 09:23:16;;;;;;;6.05;2.38;;;30.10;53.00;;;;;;4971579;28;20050;-79
2022/01/08 09:25:45;;;;;;;8.52;2.55;;;30.00;53.00;;;;;;4964376;28;20372;-79
2022/01/08 09:28:12;;;;;;;8.15;2.40;;;29.90;53.20;;;;;;4969961;28;20065;-80
2022/01/08 09:30:38;;;;;;;8.65;3.10;;;29.90;53.40;;;;;;4965389;28;20043;-80
2022/01/08 09:33:05;;;;;;;4.85;2.55;;;29.80;53.30;;;;;;4970450;28;20410;-79
2022/01/08 09:35:32;;;;;;;8.40;3.25;;;29.80;53.70;;;;;;4973617;28;20031;-80
2022/01/08 09:38:15;;;;;;;5.93;2.47;;;29.80;53.70;;;;;;4968168;28;20031;-80
2022/01/08 09:40:42;;;;;;;11.25;4.00;;;29.70;53.70;;;;;;4970027;28;20509;-78
2022/01/08 09:43:08;;;;;;;5.60;2.40;;;29.70;53.80;;;;;;4968963;28;20394;-80
2022/01/08 09:45:35;;;;;;;6.32;2.67;;;29.70;53.80;;;;;;4973224;28;20541;-77
2022/01/08 09:48:02;;;;;;;8.65;3.08;;;29.80;53.80;;;;;;4968543;28;20034;-79
2022/01/08 09:50:28;;;;;;;6.45;2.67;;;29.80;53.70;;;;;;4969889;28;20081;-77
2022/01/08 09:52:57;;;;;;;6.82;2.67;;;29.80;53.70;;;;;;4969585;28;20020;-75
2022/01/08 09:55:26;;;;;;;6.32;2.10;;;29.90;53.80;;;;;;4970902;28;20518;-78
2022/01/08 09:57:54;;;;;;;6.72;2.13;;;29.90;53.90;;;;;;4967241;28;20027;-80
2022/01/08 10:00:23;;;;;;;5.85;2.40;;;30.00;53.90;;;;;;4974367;28;20069;-80
2022/01/08 10:02:51;;;;;;;6.32;2.10;;;30.00;53.90;;;;;;4951205;28;20116;-79
2022/01/08 10:05:26;;;;;;;7.70;2.80;;;30.10;53.80;;;;;;4973619;28;20018;-80
2022/01/08 10:08:01;;;;;;;5.40;2.42;;;30.10;53.70;;;;;;4953922;28;20034;-79
2022/01/08 10:10:27;;;;;;;5.03;2.53;;;30.10;53.40;;;;;;4969723;28;20569;-80
2022/01/08 10:13:01;;;;;;;6.85;3.97;;;30.20;53.50;;;;;;4954992;28;20130;-78
2022/01/08 10:18:31;;;;;;;7.45;2.45;;;30.30;53.10;;;;;;4973648;28;20126;-80
2022/01/08 10:20:59;;;;;;;6.20;2.67;;;30.30;53.00;;;;;;4973499;28;20031;-79
2022/01/08 10:23:27;;;;;;;6.38;2.33;;;30.40;52.70;;;;;;4968202;28;20043;-80
2022/01/08 10:26:04;;;;;;;6.15;2.55;;;30.40;52.70;;;;;;4960521;28;20035;-75
2022/01/08 10:28:51;;;;;;;8.52;2.63;;;30.50;53.20;;;;;;4970080;28;20027;-77
2022/01/08 10:31:24;;;;;;;4.15;1.95;;;30.60;52.40;;;;;;4968830;28;20088;-79
2022/01/08 10:34:02;;;;;;;21.42;5.07;;;30.60;52.20;;;;;;4967313;28;20131;-74
2022/01/08 10:36:37;;;;;;;17.95;3.15;;;30.70;52.40;;;;;;4971466;28;20541;-78
2022/01/08 10:39:09;;;;;;;11.23;3.60;;;30.70;52.30;;;;;;4965777;28;20027;-76
2022/01/08 10:41:42;;;;;;;9.95;3.78;;;30.80;52.10;;;;;;4971671;28;20030;-77
2022/01/08 10:44:16;;;;;;;11.95;2.78;;;30.80;52.00;;;;;;4955230;28;20023;-78
2022/01/08 10:46:52;;;;;;;12.75;2.72;;;30.90;52.00;;;;;;4966407;28;20019;-75
2022/01/08 10:49:32;;;;;;;8.50;3.70;;;30.90;52.00;;;;;;4969403;28;20095;-77
2022/01/08 10:52:01;;;;;;;7.32;2.58;;;31.00;52.10;;;;;;4973196;28;20035;-76
2022/01/08 10:54:30;;;;;;;6.10;2.47;;;31.10;52.20;;;;;;4966513;28;20030;-76
2022/01/08 10:57:02;;;;;;;5.45;2.58;;;31.20;52.10;;;;;;4955986;28;20034;-79
2022/01/08 10:59:30;;;;;;;5.88;2.60;;;31.20;52.10;;;;;;4969825;28;20050;-75
2022/01/08 11:02:06;;;;;;;6.65;2.60;;;31.30;51.90;;;;;;4971702;28;20111;-76
2022/01/08 11:04:38;;;;;;;6.05;2.40;;;31.40;51.70;;;;;;4970723;28;20051;-76
2022/01/08 11:07:12;;;;;;;12.15;3.05;;;31.40;51.60;;;;;;4969569;28;20089;-78
2022/01/08 11:09:41;;;;;;;5.75;2.10;;;31.50;51.50;;;;;;4954674;28;20035;-77
2022/01/08 11:12:12;;;;;;;7.15;2.63;;;31.60;51.40;;;;;;4953554;28;20097;-75
2022/01/08 11:17:22;;;;;;;4.85;3.20;;;31.70;50.90;;;;;;4964208;28;20062;-76
2022/01/08 11:20:13;;;;;;;5.50;2.58;;;31.80;50.90;;;;;;4971766;28;20026;-76
2022/01/08 11:22:49;;;;;;;17.00;4.03;;;31.90;50.70;;;;;;4959657;28;20035;-77
2022/01/08 11:25:17;;;;;;;9.85;2.75;;;31.90;50.60;;;;;;4958635;28;20021;-76
2022/01/08 11:28:05;;;;;;;11.55;2.88;;;32.00;50.30;;;;;;4968703;28;20021;-77
2022/01/08 11:30:35;;;;;;;9.68;2.58;;;32.10;50.00;;;;;;4964866;28;20039;-77
2022/01/08 11:33:09;;;;;;;4.15;2.10;;;32.10;49.80;;;;;;4971352;28;20095;-79
2022/01/08 11:35:37;;;;;;;8.13;2.45;;;32.20;49.70;;;;;;4950791;28;20117;-77
2022/01/08 11:38:07;;;;;;;9.57;3.10;;;32.20;49.30;;;;;;4970796;28;20015;-78
2022/01/08 11:40:39;;;;;;;6.47;2.22;;;32.30;49.20;;;;;;4966992;28;20410;-77
2022/01/08 11:43:09;;;;;;;4.03;1.75;;;32.30;49.30;;;;;;4953291;28;20090;-77
2022/01/08 11:45:40;;;;;;;18.33;3.83;;;32.40;49.10;;;;;;4972145;28;20038;-74
2022/01/08 11:48:10;;;;;;;6.35;2.30;;;32.30;49.00;;;;;;4954400;28;20492;-74
2022/01/08 11:50:37;;;;;;;7.03;2.42;;;32.40;48.60;;;;;;4964931;28;20050;-74
2022/01/08 11:53:16;;;;;;;7.18;2.33;;;32.50;48.70;;;;;;4968994;28;20033;-78
2022/01/08 11:56:05;;;;;;;5.32;2.28;;;32.60;48.20;;;;;;4965194;28;20023;-75
2022/01/08 11:58:34;;;;;;;3.70;1.65;;;32.70;47.90;;;;;;4966330;28;20425;-77
2022/01/08 12:01:05;;;;;;;2.97;2.25;;;32.80;47.60;;;;;;4971253;28;20097;-75
2022/01/08 12:03:39;;;;;;;3.75;1.95;;;32.90;47.60;;;;;;4949516;28;20035;-75
2022/01/08 12:06:32;;;;;;;8.48;2.70;;;33.00;47.30;;;;;;4951904;28;20125;-76
2022/01/08 12:09:21;;;;;;;6.32;2.22;;;33.20;47.20;;;;;;4962119;28;20031;-74
2022/01/08 12:11:47;;;;;;;6.63;1.92;;;33.20;47.00;;;;;;4966278;28;20033;-77
2022/01/08 12:14:30;;;;;;;3.60;1.95;;;33.30;46.80;;;;;;4970298;28;20018;-76
2022/01/08 12:16:59;;;;;;;7.20;3.13;;;33.40;46.80;;;;;;4968416;28;20023;-75
2022/01/08 12:19:37;;;;;;;5.00;2.28;;;33.50;46.70;;;;;;4965771;28;20019;-77
2022/01/08 12:22:19;;;;;;;4.60;2.45;;;33.60;46.70;;;;;;4969825;28;20051;-73
2022/01/08 12:24:49;;;;;;;5.18;3.08;;;33.70;46.70;;;;;;4961655;28;20019;-77
2022/01/08 12:27:40;;;;;;;5.93;2.08;;;33.80;46.60;;;;;;4971668;28;20019;-76
2022/01/08 12:30:16;;;;;;;3.83;2.13;;;33.90;46.50;;;;;;4966048;28;20038;-78
2022/01/08 12:32:47;;;;;;;5.32;2.63;;;34.00;46.30;;;;;;4967824;28;20024;-77
2022/01/08 12:35:18;;;;;;;5.10;2.13;;;34.10;46.20;;;;;;4969533;28;20030;-77
2022/01/08 12:37:54;;;;;;;6.57;2.30;;;34.10;45.90;;;;;;4950080;28;20023;-77
2022/01/08 12:40:39;;;;;;;4.47;2.38;;;34.20;46.00;;;;;;4967692;28;20022;-78
2022/01/08 12:43:37;;;;;;;6.88;2.38;;;34.30;45.70;;;;;;4957992;28;20030;-77
2022/01/08 12:46:25;;;;;;;6.82;2.63;;;34.50;45.50;;;;;;4968421;28;20031;-78
2022/01/08 12:49:10;;;;;;;5.68;2.75;;;34.70;45.00;;;;;;4969838;28;20038;-77
2022/01/08 12:51:48;;;;;;;5.80;2.92;;;34.90;44.80;;;;;;4962345;28;20585;-76
2022/01/08 12:54:20;;;;;;;7.60;4.22;;;35.00;44.50;;;;;;4975092;28;20027;-76
2022/01/08 12:56:52;;;;;;;9.10;3.78;;;35.10;44.50;;;;;;4966461;28;20030;-77
2022/01/08 12:59:20;;;;;;;9.88;3.50;;;35.20;44.80;;;;;;4937221;28;20462;-77
2022/01/08 13:01:50;;;;;;;7.85;4.20;;;35.30;44.50;;;;;;4966670;28;20086;-77
2022/01/08 13:04:21;;;;;;;5.38;2.97;;;35.30;44.30;;;;;;4963697;28;20043;-75
2022/01/08 13:06:48;;;;;;;10.25;5.10;;;35.40;44.30;;;;;;4964957;28;20023;-77
2022/01/08 13:09:15;;;;;;;5.07;4.00;;;35.40;44.40;;;;;;4968538;28;20497;-77
2022/01/08 13:11:43;;;;;;;6.97;4.75;;;35.50;44.50;;;;;;4950898;28;20020;-76
2022/01/08 13:14:15;;;;;;;5.97;3.80;;;35.50;44.40;;;;;;4967230;28;20430;-77
2022/01/08 13:16:43;;;;;;;9.68;3.78;;;35.60;44.40;;;;;;4964944;28;20030;-77